Richmond Heights, Missouri
Current Conditions -  °F | °C
As of 6:51 AM on Friday 19 Dec 2014 (Local Time) from KSTL Reporting Station
Broken Clouds Broken Clouds  
Wind Chill: 25°   Ceiling: 6500
Heat Index: 32°   Visibility: 7mi
Dew Point: 26°   Wind: 8mph
Humidity: 79%   Direction: 70°ENE
Pressure: 30.3"   Gusts: NA
Location:  38.63°N, 90.32°W
Report Text: KSTL 191251Z 07007KT 7SM FEW027 BKN065 00/M03 A3030 RMK AO2 SLP271 T00001033
Loading
Personal Weather Stations






























Interactive Weather Map New forecast layout! Learn more

10-Day Weather Forecast

Advertisements
Track Severe Weather on mobile